Newport Beach, California
Current Conditions -  °F | °C
As of 4:53 PM on Friday 24 Oct 2014 (Local Time) from KSNA Reporting Station
Clear Clear  
Wind Chill: 81°   Ceiling: Unl
Heat Index: 81°   Visibility: 10mi
Dew Point: 59°   Wind: 6mph
Humidity: 47%   Direction: 200°SSW
Pressure: 29.92"   Gusts: NA
Location:  33.62°N, 117.93°W
Report Text: KSNA 242353Z 20005KT 10SM CLR 27/15 A2992 RMK AO2 SLP131 T02720150 10300 20272 56004
Loading
Personal Weather Stations






























Interactive Weather Map
Tropical Storm Tracking
New forecast layout! Learn more

10-Day Weather Forecast

Advertisements
Track Severe Weather on mobile